Terminal Aerodrome Forecast
Issued by NWS

Home | Current Version | Previous Version | Text Only | Print | Product List | Glossary On
Versions: 1 2 3 4 5 6 7 8 9 10 11 12 13 14 15 16 17
000
FTUS41 KCAR 310219 AAA
TAFPQI
TAF AMD
KPQI 310219Z 3102/3124 15007KT 3SM -SN BR OVC027
     FM310600 33012G20KT 2SM -SN OVC015
     FM310900 34020G35KT 1 1/2SM -SN BLSN OVC020
     FM312100 34018G28KT 4SM -SN BR OVC025
      AMD LTD TO CLD VIS AND WIND=

USA.gov is the U.S. government's official web portal to all federal, state and local government web resources and services.